createdAt,value
2022-10-14T00:01:20.949Z,4.20
2022-10-14T00:03:49.846Z,3.88
2022-10-14T00:06:23.783Z,4.70
2022-10-14T00:08:51.713Z,4.13
2022-10-14T00:11:25.160Z,3.45
2022-10-14T00:14:07.879Z,3.70
2022-10-14T00:16:38.271Z,4.32
2022-10-14T00:19:06.743Z,3.85
2022-10-14T00:21:36.965Z,4.18
2022-10-14T00:24:05.922Z,3.85
2022-10-14T00:26:36.830Z,3.40
2022-10-14T00:29:08.045Z,4.07
2022-10-14T00:31:36.023Z,3.60
2022-10-14T00:34:04.172Z,4.00
2022-10-14T00:36:32.212Z,4.30
2022-10-14T00:39:00.037Z,3.97
2022-10-14T00:41:31.967Z,4.30
2022-10-14T00:44:11.885Z,3.83
2022-10-14T00:46:41.947Z,4.15
2022-10-14T00:49:10.026Z,3.80
2022-10-14T00:51:39.664Z,3.90
2022-10-14T00:54:08.414Z,4.43
2022-10-14T00:56:37.262Z,4.22
2022-10-14T00:59:08.798Z,4.18
2022-10-14T01:01:36.942Z,4.00
2022-10-14T01:04:05.249Z,4.03
2022-10-14T01:06:36.020Z,4.13
2022-10-14T01:09:12.818Z,4.00
2022-10-14T01:12:16.283Z,4.60
2022-10-14T01:15:00.114Z,4.03
2022-10-14T01:17:35.204Z,4.25
2022-10-14T01:20:09.003Z,3.78
2022-10-14T01:23:14.037Z,3.72
2022-10-14T01:26:00.667Z,4.20
2022-10-14T01:29:22.744Z,3.90
2022-10-14T01:32:17.265Z,3.95
2022-10-14T01:34:52.662Z,3.90
2022-10-14T01:37:25.362Z,4.20
2022-10-14T01:39:59.705Z,3.92
2022-10-14T01:42:34.591Z,4.20
2022-10-14T01:45:09.763Z,4.43
2022-10-14T01:47:40.879Z,4.38
2022-10-14T01:50:18.473Z,4.50
2022-10-14T01:52:54.884Z,3.90
2022-10-14T01:55:26.914Z,4.07
2022-10-14T01:57:57.846Z,4.07
2022-10-14T02:00:26.180Z,4.20
2022-10-14T02:02:53.718Z,4.10
2022-10-14T02:05:23.829Z,4.55
2022-10-14T02:08:39.344Z,3.70
2022-10-14T02:11:17.307Z,4.00
2022-10-14T02:13:46.698Z,3.95
2022-10-14T02:16:38.900Z,3.65
2022-10-14T02:19:25.442Z,3.53
2022-10-14T02:22:02.022Z,3.28
2022-10-14T02:24:51.556Z,3.65
2022-10-14T02:27:22.255Z,3.53
2022-10-14T02:29:52.414Z,3.35
2022-10-14T02:32:23.110Z,3.55
2022-10-14T02:34:54.830Z,2.95
2022-10-14T02:37:23.965Z,2.65
2022-10-14T02:40:11.557Z,2.45
2022-10-14T02:42:41.649Z,2.85
2022-10-14T02:45:11.977Z,2.42
2022-10-14T02:47:39.864Z,2.85
2022-10-14T02:50:09.469Z,2.92
2022-10-14T02:52:37.185Z,3.50
2022-10-14T02:55:05.436Z,3.10
2022-10-14T02:57:33.302Z,2.95
2022-10-14T03:00:01.013Z,3.38
2022-10-14T03:02:30.123Z,3.25
2022-10-14T03:04:59.358Z,3.42
2022-10-14T03:07:27.059Z,3.50
2022-10-14T03:09:57.065Z,3.72
2022-10-14T03:12:25.688Z,3.70
2022-10-14T03:14:55.966Z,3.25
2022-10-14T03:17:25.914Z,3.35
2022-10-14T03:19:56.394Z,3.15
2022-10-14T03:22:26.362Z,2.80
2022-10-14T03:24:55.443Z,3.28
2022-10-14T03:27:35.511Z,3.47
2022-10-14T03:30:08.622Z,2.90
2022-10-14T03:32:41.379Z,3.00
2022-10-14T03:35:15.685Z,3.45
2022-10-14T03:37:46.046Z,2.90
2022-10-14T03:40:15.868Z,3.05
2022-10-14T03:42:43.905Z,3.30
2022-10-14T03:45:11.733Z,2.92
2022-10-14T03:47:41.089Z,2.58
2022-10-14T03:50:09.115Z,3.10
2022-10-14T03:52:47.089Z,2.78
2022-10-14T03:55:26.368Z,2.67
2022-10-14T03:57:54.436Z,2.70
2022-10-14T04:00:22.697Z,2.50
2022-10-14T04:03:01.783Z,3.05
2022-10-14T04:05:35.091Z,2.72
2022-10-14T04:08:09.464Z,3.35
2022-10-14T04:10:38.970Z,3.20
2022-10-14T04:13:07.793Z,3.00
2022-10-14T04:15:38.566Z,2.65
2022-10-14T04:18:29.017Z,3.60
2022-10-14T04:21:06.417Z,3.13
2022-10-14T04:23:34.906Z,3.03
2022-10-14T04:26:13.610Z,3.85
2022-10-14T04:28:41.586Z,3.35
2022-10-14T04:31:14.688Z,5.43
2022-10-14T04:33:54.973Z,6.22
2022-10-14T04:36:30.157Z,5.85
2022-10-14T04:39:00.297Z,4.85
2022-10-14T04:41:28.631Z,4.35
2022-10-14T04:43:58.521Z,4.05
2022-10-14T04:46:32.231Z,4.10
2022-10-14T04:49:01.113Z,5.20
2022-10-14T04:51:34.352Z,5.65
2022-10-14T04:54:17.862Z,7.47
2022-10-14T04:56:56.402Z,6.32
2022-10-14T04:59:25.243Z,5.18
2022-10-14T05:02:13.063Z,4.03
2022-10-14T05:05:01.012Z,4.22
2022-10-14T05:07:32.266Z,4.20
2022-10-14T05:10:14.475Z,4.82
2022-10-14T05:12:43.518Z,4.10
2022-10-14T05:15:12.794Z,3.42
2022-10-14T05:17:48.556Z,3.17
2022-10-14T05:20:19.808Z,3.05
2022-10-14T05:22:51.860Z,2.85
2022-10-14T05:25:19.662Z,3.40
2022-10-14T05:27:47.857Z,2.42
2022-10-14T05:30:15.626Z,3.53
2022-10-14T05:32:48.172Z,3.95
2022-10-14T05:35:33.949Z,3.70
2022-10-14T05:38:06.464Z,3.40
2022-10-14T05:40:38.118Z,3.47
2022-10-14T05:43:06.598Z,3.17
2022-10-14T05:45:37.199Z,3.03
2022-10-14T05:48:05.582Z,3.20
2022-10-14T05:50:33.217Z,3.10
2022-10-14T05:53:06.270Z,2.97
2022-10-14T05:55:41.930Z,2.88
2022-10-14T05:58:10.088Z,3.50
2022-10-14T06:00:41.725Z,3.10
2022-10-14T06:03:14.361Z,2.80
2022-10-14T06:05:42.382Z,2.70
2022-10-14T06:08:10.270Z,2.75
2022-10-14T06:10:39.675Z,2.83
2022-10-14T06:13:07.414Z,2.58
2022-10-14T06:15:38.200Z,2.50
2022-10-14T06:18:06.614Z,3.20
2022-10-14T06:20:34.548Z,2.70
2022-10-14T06:23:02.775Z,3.10
2022-10-14T06:25:31.233Z,3.22
2022-10-14T06:28:05.777Z,3.17
2022-10-14T06:30:33.529Z,3.47
2022-10-14T06:33:01.490Z,3.22
2022-10-14T06:35:30.044Z,3.00
2022-10-14T06:37:58.052Z,3.05
2022-10-14T06:40:25.800Z,4.07
2022-10-14T06:42:53.755Z,3.70
2022-10-14T06:45:21.587Z,4.10
2022-10-14T06:47:49.532Z,4.18
2022-10-14T06:50:17.317Z,3.65
2022-10-14T06:52:48.209Z,3.75
2022-10-14T06:55:16.742Z,3.90
2022-10-14T06:57:44.662Z,3.75
2022-10-14T07:00:12.627Z,3.38
2022-10-14T07:02:40.384Z,4.47
2022-10-14T07:05:08.258Z,3.58
2022-10-14T07:07:36.024Z,3.00
2022-10-14T07:10:04.053Z,3.05
2022-10-14T07:12:31.782Z,2.70
2022-10-14T07:14:59.722Z,3.00
2022-10-14T07:17:27.396Z,2.67
2022-10-14T07:19:55.117Z,3.00
2022-10-14T07:22:23.140Z,3.42
2022-10-14T07:24:50.983Z,2.80
2022-10-14T07:27:20.834Z,3.05
2022-10-14T07:29:48.799Z,3.25
2022-10-14T07:32:16.329Z,4.65
2022-10-14T07:34:43.921Z,3.72
2022-10-14T07:37:11.492Z,3.50
2022-10-14T07:39:39.177Z,3.45
2022-10-14T07:42:06.851Z,3.15
2022-10-14T07:44:34.635Z,3.40
2022-10-14T07:47:03.382Z,3.80
2022-10-14T07:49:31.068Z,3.70
2022-10-14T07:51:58.712Z,3.25
2022-10-14T07:54:29.418Z,3.00
2022-10-14T07:56:58.144Z,3.47
2022-10-14T07:59:25.996Z,3.35
2022-10-14T08:01:54.416Z,2.90
2022-10-14T08:04:22.922Z,2.40
2022-10-14T08:06:51.982Z,3.08
2022-10-14T08:09:20.209Z,3.05
2022-10-14T08:11:48.633Z,3.30
2022-10-14T08:14:16.831Z,3.03
2022-10-14T08:16:44.512Z,3.13
2022-10-14T08:19:14.639Z,2.88
2022-10-14T08:21:43.943Z,2.90
2022-10-14T08:24:12.356Z,2.58
2022-10-14T08:26:49.114Z,3.13
2022-10-14T08:31:44.877Z,2.70
2022-10-14T08:34:12.527Z,2.85
2022-10-14T08:36:40.437Z,2.88
2022-10-14T08:42:00.675Z,2.60
2022-10-14T08:44:42.760Z,2.90
2022-10-14T08:47:21.048Z,3.40
2022-10-14T08:50:17.670Z,2.80
2022-10-14T08:52:54.033Z,3.30
2022-10-14T08:55:36.743Z,3.20
2022-10-14T08:58:47.532Z,3.00
2022-10-14T09:01:24.292Z,3.10
2022-10-14T09:04:05.706Z,2.88
2022-10-14T09:06:40.954Z,3.33
2022-10-14T09:09:38.311Z,2.63
2022-10-14T09:12:12.192Z,2.30
2022-10-14T09:14:44.720Z,2.90
2022-10-14T09:17:22.221Z,2.72
2022-10-14T09:20:05.399Z,2.55
2022-10-14T09:22:33.027Z,2.95
2022-10-14T09:25:01.388Z,2.40
2022-10-14T09:27:30.253Z,3.30
2022-10-14T09:30:02.199Z,2.65
2022-10-14T09:32:46.667Z,3.20
2022-10-14T09:35:20.061Z,3.88
2022-10-14T09:37:47.733Z,3.50
2022-10-14T09:40:36.363Z,3.28
2022-10-14T09:43:10.741Z,3.28
2022-10-14T09:46:03.205Z,3.40
2022-10-14T09:48:44.484Z,3.35
2022-10-14T09:51:22.713Z,2.85
2022-10-14T09:53:58.421Z,2.50
2022-10-14T09:56:32.536Z,2.78
2022-10-14T09:59:01.733Z,3.10
2022-10-14T10:01:49.236Z,2.75
2022-10-14T10:04:32.041Z,2.88
2022-10-14T10:07:02.176Z,3.30
2022-10-14T10:09:30.021Z,3.50
2022-10-14T10:11:57.774Z,3.78
2022-10-14T10:14:34.953Z,3.67
2022-10-14T10:17:08.876Z,3.75
2022-10-14T10:19:45.059Z,4.00
2022-10-14T10:22:24.825Z,3.60
2022-10-14T10:25:12.614Z,3.47
2022-10-14T10:27:48.967Z,3.53
2022-10-14T10:30:28.100Z,3.42
2022-10-14T10:33:01.962Z,3.17
2022-10-14T10:36:02.374Z,2.75
2022-10-14T10:39:02.085Z,3.28
2022-10-14T10:41:39.002Z,4.55
2022-10-14T10:47:15.439Z,4.00
2022-10-14T10:50:04.775Z,4.47
2022-10-14T10:52:35.591Z,4.70
2022-10-14T10:55:18.393Z,5.03
2022-10-14T10:58:10.607Z,5.25
2022-10-14T11:01:02.112Z,5.78
2022-10-14T11:03:56.315Z,7.45
2022-10-14T11:06:57.231Z,7.00
2022-10-14T11:10:14.065Z,6.25
2022-10-14T11:12:49.792Z,5.15
2022-10-14T11:15:23.504Z,4.97
2022-10-14T11:18:23.083Z,5.63
2022-10-14T11:21:30.104Z,5.95
2022-10-14T11:24:07.140Z,6.13
2022-10-14T11:26:59.631Z,4.72
2022-10-14T11:29:50.650Z,5.00
2022-10-14T11:32:21.991Z,5.65
2022-10-14T11:35:11.129Z,6.18
2022-10-14T11:38:05.805Z,6.65
2022-10-14T11:40:45.739Z,7.63
2022-10-14T11:43:26.324Z,7.00
2022-10-14T11:46:02.313Z,6.95
2022-10-14T11:48:35.936Z,6.65
2022-10-14T11:51:16.434Z,6.93
2022-10-14T11:53:46.965Z,7.20
2022-10-14T11:56:46.839Z,6.90
2022-10-14T11:59:28.547Z,6.93
2022-10-14T12:02:09.171Z,7.25
2022-10-14T12:04:41.165Z,7.20
2022-10-14T12:07:18.942Z,6.32
2022-10-14T12:09:57.399Z,6.20
2022-10-14T12:12:29.732Z,5.60
2022-10-14T12:15:06.035Z,5.47
2022-10-14T12:17:49.256Z,7.22
2022-10-14T12:20:47.986Z,6.72
2022-10-14T12:23:31.092Z,6.63
2022-10-14T12:26:24.398Z,7.55
2022-10-14T12:28:54.558Z,9.95
2022-10-14T12:31:38.960Z,10.15
2022-10-14T12:34:13.668Z,13.10
2022-10-14T12:36:50.867Z,11.52
2022-10-14T12:39:18.707Z,14.70
2022-10-14T12:42:10.162Z,12.50
2022-10-14T12:44:52.730Z,11.65
2022-10-14T12:47:32.331Z,10.73
2022-10-14T12:50:03.204Z,9.90
2022-10-14T12:52:37.267Z,8.80
2022-10-14T12:55:23.336Z,8.35
2022-10-14T12:57:56.810Z,7.38
2022-10-14T13:00:24.404Z,6.47
2022-10-14T13:03:00.466Z,5.70
2022-10-14T13:05:42.704Z,6.22
2022-10-14T13:08:14.879Z,6.10
2022-10-14T13:10:47.631Z,5.40
2022-10-14T13:13:52.600Z,6.45
2022-10-14T13:16:26.563Z,7.47
2022-10-14T13:18:58.025Z,7.45
2022-10-14T13:21:37.207Z,6.93
2022-10-14T13:24:16.898Z,6.63
2022-10-14T13:26:54.489Z,7.45
2022-10-14T13:29:33.110Z,8.23
2022-10-14T13:32:31.146Z,8.15
2022-10-14T13:35:41.006Z,8.68
2022-10-14T13:38:19.183Z,8.05
2022-10-14T13:40:54.360Z,6.65
2022-10-14T13:43:28.754Z,6.32
2022-10-14T13:46:08.872Z,5.88
2022-10-14T13:48:41.066Z,6.00
2022-10-14T13:51:24.351Z,7.47
2022-10-14T13:54:20.886Z,7.15
2022-10-14T14:00:38.813Z,6.38
2022-10-14T14:02:55.136Z,6.65
2022-10-14T14:11:23.160Z,7.22
2022-10-14T14:14:17.220Z,7.10
2022-10-14T14:16:56.619Z,6.65
2022-10-14T14:19:29.716Z,7.60
2022-10-14T14:22:24.686Z,7.53
2022-10-14T14:24:52.263Z,6.70
2022-10-14T14:27:23.699Z,6.72
2022-10-14T14:29:53.785Z,6.97
2022-10-14T14:32:25.811Z,6.53
2022-10-14T14:34:54.835Z,6.13
2022-10-14T14:40:28.094Z,6.20
2022-10-14T14:43:01.152Z,6.53
2022-10-14T14:45:32.797Z,7.72
2022-10-14T14:48:06.888Z,6.90
2022-10-14T14:50:44.069Z,8.20
2022-10-14T14:53:30.126Z,9.05
2022-10-14T14:56:06.869Z,7.82
2022-10-14T14:58:37.339Z,8.77
2022-10-14T15:01:16.142Z,8.48
2022-10-14T15:04:12.979Z,8.13
2022-10-14T15:06:51.324Z,8.27
2022-10-14T15:09:30.265Z,7.90
2022-10-14T15:12:02.018Z,9.20
2022-10-14T15:14:53.268Z,7.82
2022-10-14T15:17:39.662Z,8.07
2022-10-14T15:20:08.222Z,7.53
2022-10-14T15:22:37.110Z,7.55
2022-10-14T15:25:25.357Z,6.70
2022-10-14T15:28:01.008Z,7.47
2022-10-14T15:30:36.657Z,7.88
2022-10-14T15:33:25.941Z,7.63
2022-10-14T15:36:04.105Z,7.63
2022-10-14T15:40:59.498Z,6.82
2022-10-14T15:43:28.022Z,5.93
2022-10-14T15:46:18.636Z,6.30
2022-10-14T15:48:49.963Z,5.85
2022-10-14T15:51:19.959Z,6.18
2022-10-14T15:53:49.242Z,5.32
2022-10-14T15:56:17.446Z,5.10
2022-10-14T15:58:45.101Z,5.13
2022-10-14T16:01:21.857Z,5.70
2022-10-14T16:06:22.847Z,5.63
2022-10-14T16:08:50.956Z,5.88
2022-10-14T16:11:29.954Z,5.13
2022-10-14T16:13:57.838Z,5.47
2022-10-14T16:16:32.820Z,6.30
2022-10-14T16:19:03.725Z,5.30
2022-10-14T16:21:32.185Z,5.38
2022-10-14T16:24:02.329Z,5.15
2022-10-14T16:26:31.249Z,5.47
2022-10-14T16:29:00.444Z,5.10
2022-10-14T16:31:28.344Z,4.78
2022-10-14T16:33:56.082Z,4.78
2022-10-14T16:36:26.524Z,4.50
2022-10-14T16:38:57.204Z,4.43
2022-10-14T16:41:28.015Z,5.07
2022-10-14T16:43:55.731Z,4.70
2022-10-14T16:46:46.084Z,5.40
2022-10-14T16:49:14.389Z,6.22
2022-10-14T16:51:43.413Z,5.55
2022-10-14T16:54:12.335Z,6.30
2022-10-14T16:56:53.431Z,6.85
2022-10-14T16:59:22.085Z,5.43
2022-10-14T17:01:51.199Z,5.47
2022-10-14T17:04:22.931Z,4.50
2022-10-14T17:09:26.417Z,4.63
2022-10-14T17:11:54.948Z,4.95
2022-10-14T17:14:24.275Z,4.88
2022-10-14T17:16:52.572Z,4.97
2022-10-14T17:19:20.507Z,5.57
2022-10-14T17:21:49.983Z,7.88
2022-10-14T17:24:17.835Z,7.47
2022-10-14T17:26:45.792Z,7.13
2022-10-14T17:29:13.343Z,6.68
2022-10-14T17:31:42.037Z,6.10
2022-10-14T17:34:10.746Z,5.57
2022-10-14T17:36:40.306Z,5.88
2022-10-14T17:39:16.379Z,6.82
2022-10-14T17:41:49.033Z,7.40
2022-10-14T17:44:16.664Z,7.57
2022-10-14T17:46:45.030Z,6.93
2022-10-14T17:49:13.204Z,7.28
2022-10-14T17:51:40.925Z,7.95
2022-10-14T17:54:12.656Z,7.70
2022-10-14T17:56:41.135Z,7.00
2022-10-14T17:59:11.561Z,7.78
2022-10-14T18:04:27.992Z,6.65
2022-10-14T18:06:56.067Z,7.88
2022-10-14T18:09:23.794Z,8.43
2022-10-14T18:14:40.755Z,7.60
2022-10-14T18:17:12.685Z,6.80
2022-10-14T18:19:41.541Z,5.97
2022-10-14T18:22:11.303Z,5.68
2022-10-14T18:24:40.769Z,5.38
2022-10-14T18:27:08.836Z,5.85
2022-10-14T18:29:36.603Z,6.10
2022-10-14T18:32:05.952Z,5.80
2022-10-14T18:34:34.214Z,6.30
2022-10-14T18:37:02.009Z,6.18
2022-10-14T18:39:30.012Z,6.55
2022-10-14T18:41:57.992Z,7.45
2022-10-14T18:44:26.028Z,8.38
2022-10-14T18:46:53.695Z,8.70
2022-10-14T18:49:21.362Z,9.82
2022-10-14T18:51:49.462Z,12.68
2022-10-14T18:54:20.468Z,13.88
2022-10-14T18:56:48.244Z,13.55
2022-10-14T18:59:22.261Z,13.40
2022-10-14T19:01:53.437Z,14.68
2022-10-14T19:04:23.873Z,13.52
2022-10-14T19:06:53.544Z,11.98
2022-10-14T19:09:29.183Z,13.38
2022-10-14T19:12:01.670Z,14.95
2022-10-14T19:14:32.015Z,19.27
2022-10-14T19:16:59.699Z,19.15
2022-10-14T19:19:27.310Z,19.38
2022-10-14T19:21:56.571Z,17.23
2022-10-14T19:24:27.368Z,16.02
2022-10-14T19:26:56.003Z,18.10
2022-10-14T19:29:23.905Z,22.85
2022-10-14T19:31:54.688Z,17.20
2022-10-14T19:34:26.705Z,15.55
2022-10-14T19:36:57.621Z,14.55
2022-10-14T19:39:26.097Z,16.58
2022-10-14T19:41:53.903Z,16.75
2022-10-14T19:44:21.810Z,15.55
2022-10-14T19:46:49.907Z,14.93
2022-10-14T19:49:18.904Z,15.07
2022-10-14T19:51:50.180Z,14.98
2022-10-14T19:54:17.805Z,14.02
2022-10-14T19:56:45.840Z,14.02
2022-10-14T19:59:14.541Z,16.00
2022-10-14T20:01:43.107Z,17.63
2022-10-14T20:04:10.866Z,15.10
2022-10-14T20:06:40.190Z,15.75
2022-10-14T20:09:08.879Z,14.80
2022-10-14T20:11:39.265Z,15.52
2022-10-14T20:14:07.369Z,18.40
2022-10-14T20:16:35.171Z,19.10
2022-10-14T20:19:04.572Z,18.70
2022-10-14T20:21:32.344Z,22.25
2022-10-14T20:24:00.340Z,24.13
2022-10-14T20:26:28.335Z,22.23
2022-10-14T20:28:58.029Z,21.65
2022-10-14T20:31:25.638Z,18.02
2022-10-14T20:33:56.358Z,16.77
2022-10-14T20:36:25.293Z,15.60
2022-10-14T20:38:53.121Z,13.82
2022-10-14T20:41:26.703Z,13.05
2022-10-14T20:43:55.746Z,10.30
2022-10-14T20:46:25.208Z,9.05
2022-10-14T20:48:57.830Z,7.97
2022-10-14T20:51:26.547Z,7.07
2022-10-14T20:54:00.856Z,6.88
2022-10-14T20:56:33.439Z,6.78
2022-10-14T20:59:06.088Z,6.57
2022-10-14T21:01:35.759Z,5.63
2022-10-14T21:04:07.741Z,6.00
2022-10-14T21:06:36.413Z,6.07
2022-10-14T21:09:04.624Z,6.45
2022-10-14T21:11:32.408Z,7.05
2022-10-14T21:14:00.991Z,7.65
2022-10-14T21:16:32.700Z,8.10
2022-10-14T21:19:05.890Z,7.63
2022-10-14T21:21:38.166Z,7.35
2022-10-14T21:24:08.727Z,7.65
2022-10-14T21:26:37.815Z,6.97
2022-10-14T21:29:06.433Z,7.00
2022-10-14T21:31:34.364Z,6.43
2022-10-14T21:34:06.013Z,6.57
2022-10-14T21:36:35.897Z,6.85
2022-10-14T21:39:11.667Z,6.88
2022-10-14T21:41:41.097Z,7.00
2022-10-14T21:44:11.009Z,7.75
2022-10-14T21:46:38.879Z,7.70
2022-10-14T21:49:06.532Z,7.20
2022-10-14T21:51:34.255Z,6.38
2022-10-14T21:54:02.461Z,6.28
2022-10-14T21:56:30.802Z,7.10
2022-10-14T21:58:59.453Z,7.32
2022-10-14T22:01:29.958Z,6.07
2022-10-14T22:04:04.065Z,6.28
2022-10-14T22:06:33.713Z,6.28
2022-10-14T22:09:03.933Z,6.35
2022-10-14T22:11:34.467Z,7.28
2022-10-14T22:14:05.361Z,7.13
2022-10-14T22:16:33.616Z,6.60
2022-10-14T22:19:03.311Z,6.60
2022-10-14T22:21:32.758Z,6.70
2022-10-14T22:24:01.905Z,6.30
2022-10-14T22:26:30.535Z,7.00
2022-10-14T22:29:04.520Z,6.50
2022-10-14T22:31:34.310Z,6.72
2022-10-14T22:34:04.669Z,6.85
2022-10-14T22:36:34.147Z,6.85
2022-10-14T22:39:05.515Z,6.38
2022-10-14T22:41:35.952Z,6.38
2022-10-14T22:44:05.725Z,6.35
2022-10-14T22:46:35.305Z,6.40
2022-10-14T22:49:04.375Z,6.55
2022-10-14T22:51:38.058Z,6.22
2022-10-14T22:54:05.753Z,6.47
2022-10-14T22:56:33.626Z,6.40
2022-10-14T22:59:04.400Z,6.72
2022-10-14T23:01:32.925Z,6.97
2022-10-14T23:04:01.154Z,7.93
2022-10-14T23:06:30.453Z,7.10
2022-10-14T23:09:00.709Z,6.95
2022-10-14T23:11:30.499Z,6.97
2022-10-14T23:14:00.313Z,6.97
2022-10-14T23:16:30.784Z,7.18
2022-10-14T23:18:59.383Z,6.75
2022-10-14T23:21:29.944Z,7.75
2022-10-14T23:24:00.043Z,7.28
2022-10-14T23:26:31.762Z,7.28
2022-10-14T23:29:00.381Z,7.03
2022-10-14T23:31:30.645Z,7.05
2022-10-14T23:34:00.035Z,6.47
2022-10-14T23:36:28.251Z,6.90
2022-10-14T23:38:55.893Z,6.60
2022-10-14T23:41:24.400Z,6.70
2022-10-14T23:43:52.868Z,6.88
2022-10-14T23:46:21.148Z,7.10
2022-10-14T23:49:00.694Z,6.75
2022-10-14T23:51:35.781Z,7.38
2022-10-14T23:54:04.130Z,6.95
2022-10-14T23:56:31.814Z,7.00
2022-10-14T23:58:59.529Z,7.10
